createdAt,value
2022-08-08T00:02:03.387Z,71.92
2022-08-08T00:04:49.436Z,72.24
2022-08-08T00:07:33.672Z,71.89
2022-08-08T00:10:13.581Z,71.76
2022-08-08T00:14:17.225Z,71.90
2022-08-08T00:16:25.136Z,72.34
2022-08-08T00:19:13.968Z,72.18
2022-08-08T00:21:50.053Z,72.05
2022-08-08T00:24:35.255Z,71.41
2022-08-08T00:27:08.215Z,71.78
2022-08-08T00:29:42.350Z,72.14
2022-08-08T00:32:36.999Z,72.21
2022-08-08T00:35:22.798Z,72.13
2022-08-08T00:38:16.946Z,72.32
2022-08-08T00:41:14.802Z,72.23
2022-08-08T00:44:01.300Z,72.18
2022-08-08T00:46:59.763Z,72.60
2022-08-08T00:49:50.410Z,72.66
2022-08-08T00:52:40.307Z,72.96
2022-08-08T00:55:53.365Z,72.60
2022-08-08T00:58:54.784Z,72.71
2022-08-08T01:01:38.397Z,72.88
2022-08-08T01:05:08.935Z,72.52
2022-08-08T01:07:58.559Z,72.97
2022-08-08T01:10:52.419Z,72.47
2022-08-08T01:13:58.231Z,73.36
2022-08-08T01:17:12.185Z,73.00
2022-08-08T01:20:03.763Z,73.17
2022-08-08T01:23:06.123Z,73.40
2022-08-08T01:26:15.840Z,74.07
2022-08-08T01:29:05.656Z,73.51
2022-08-08T01:32:16.058Z,73.69
2022-08-08T01:34:57.358Z,73.61
2022-08-08T01:38:02.163Z,73.24
2022-08-08T01:40:58.998Z,73.98
2022-08-08T01:43:50.620Z,73.31
2022-08-08T01:46:52.424Z,73.79
2022-08-08T01:49:45.888Z,73.16
2022-08-08T01:53:01.169Z,73.49
2022-08-08T01:56:26.168Z,73.03
2022-08-08T01:58:38.465Z,73.00
2022-08-08T02:01:54.733Z,73.36
2022-08-08T02:04:37.467Z,73.25
2022-08-08T02:07:16.632Z,73.26
2022-08-08T02:10:02.824Z,73.65
2022-08-08T02:12:57.129Z,73.14
2022-08-08T02:15:43.540Z,72.75
2022-08-08T02:18:33.256Z,72.45
2022-08-08T02:21:32.593Z,72.15
2022-08-08T02:24:26.916Z,72.09
2022-08-08T02:27:04.986Z,72.41
2022-08-08T02:30:06.473Z,71.81
2022-08-08T02:33:03.326Z,72.02
2022-08-08T02:35:35.763Z,72.33
2022-08-08T02:38:44.801Z,72.01
2022-08-08T02:41:58.962Z,71.96
2022-08-08T02:44:37.593Z,72.17
2022-08-08T02:47:54.729Z,72.63
2022-08-08T02:50:55.635Z,72.13
2022-08-08T02:53:56.769Z,72.35
2022-08-08T02:56:55.208Z,71.90
2022-08-08T03:00:26.479Z,71.67
2022-08-08T03:05:00.656Z,71.80
2022-08-08T03:06:40.789Z,71.71
2022-08-08T03:09:52.392Z,71.68
2022-08-08T03:12:36.304Z,71.76
2022-08-08T03:15:59.072Z,71.42
2022-08-08T03:18:53.118Z,71.73
2022-08-08T03:21:26.975Z,71.58
2022-08-08T03:24:08.345Z,70.91
2022-08-08T03:26:42.087Z,71.14
2022-08-08T03:29:26.735Z,71.19
2022-08-08T03:32:14.282Z,71.41
2022-08-08T03:34:41.812Z,71.12
2022-08-08T03:37:59.550Z,70.76
2022-08-08T03:40:06.557Z,70.96
2022-08-08T03:42:39.142Z,70.72
2022-08-08T03:46:03.265Z,71.13
2022-08-08T03:48:08.330Z,70.84
2022-08-08T03:50:50.517Z,70.50
2022-08-08T03:53:24.190Z,70.65
2022-08-08T03:56:09.980Z,70.24
2022-08-08T03:58:56.933Z,70.19
2022-08-08T04:02:15.820Z,69.80
2022-08-08T04:04:31.185Z,69.54
2022-08-08T04:07:01.470Z,69.77
2022-08-08T04:09:58.888Z,70.14
2022-08-08T04:12:26.889Z,69.76
2022-08-08T04:14:54.454Z,70.27
2022-08-08T04:17:57.719Z,69.81
2022-08-08T04:20:10.863Z,69.55
2022-08-08T04:22:38.537Z,69.43
2022-08-08T04:25:08.249Z,69.15
2022-08-08T04:28:01.712Z,69.19
2022-08-08T04:30:27.399Z,68.90
2022-08-08T04:32:54.896Z,69.22
2022-08-08T04:35:29.848Z,69.08
2022-08-08T04:38:00.881Z,69.53
2022-08-08T04:40:35.422Z,69.14
2022-08-08T04:43:03.559Z,68.88
2022-08-08T04:45:37.440Z,69.24
2022-08-08T04:48:06.306Z,68.61
2022-08-08T04:50:38.855Z,68.53
2022-08-08T04:53:14.154Z,68.51
2022-08-08T04:56:00.257Z,68.88
2022-08-08T04:58:31.350Z,69.13
2022-08-08T05:01:08.962Z,69.31
2022-08-08T05:04:09.238Z,68.87
2022-08-08T05:06:30.983Z,68.96
2022-08-08T05:09:02.268Z,68.66
2022-08-08T05:11:38.860Z,68.74
2022-08-08T05:14:12.276Z,68.59
2022-08-08T05:16:53.304Z,68.37
2022-08-08T05:20:10.050Z,68.86
2022-08-08T05:22:17.647Z,68.42
2022-08-08T05:24:49.389Z,68.85
2022-08-08T05:27:20.295Z,69.24
2022-08-08T05:29:50.243Z,68.17
2022-08-08T05:32:19.128Z,68.08
2022-08-08T05:34:53.744Z,68.18
2022-08-08T05:37:51.976Z,67.84
2022-08-08T05:40:17.043Z,67.38
2022-08-08T05:42:49.902Z,68.02
2022-08-08T05:45:31.177Z,67.92
2022-08-08T05:48:08.271Z,68.49
2022-08-08T05:50:38.722Z,68.15
2022-08-08T05:53:54.463Z,67.52
2022-08-08T05:56:11.313Z,67.50
2022-08-08T05:58:53.911Z,67.12
2022-08-08T06:01:52.605Z,67.52
2022-08-08T06:04:23.376Z,66.25
2022-08-08T06:06:56.576Z,66.24
2022-08-08T06:10:00.360Z,66.28
2022-08-08T06:12:29.999Z,66.52
2022-08-08T06:15:03.223Z,66.25
2022-08-08T06:17:51.204Z,66.15
2022-08-08T06:20:22.946Z,66.38
2022-08-08T06:22:53.419Z,66.65
2022-08-08T06:26:36.263Z,66.15
2022-08-08T06:28:29.212Z,66.49
2022-08-08T06:31:01.697Z,65.82
2022-08-08T06:34:25.706Z,65.54
2022-08-08T06:36:41.639Z,65.95
2022-08-08T06:39:24.681Z,65.88
2022-08-08T06:42:02.805Z,66.79
2022-08-08T06:44:49.223Z,65.93
2022-08-08T06:47:22.268Z,66.16
2022-08-08T06:49:56.832Z,66.09
2022-08-08T06:52:27.801Z,66.21
2022-08-08T06:54:58.753Z,65.98
2022-08-08T06:57:29.275Z,65.41
2022-08-08T07:00:12.816Z,65.63
2022-08-08T07:02:51.923Z,64.92
2022-08-08T07:05:24.963Z,65.52
2022-08-08T07:08:27.711Z,65.29
2022-08-08T07:10:59.066Z,65.48
2022-08-08T07:14:00.737Z,66.18
2022-08-08T07:17:19.788Z,65.38
2022-08-08T07:20:04.629Z,65.30
2022-08-08T07:23:04.849Z,65.97
2022-08-08T07:25:39.616Z,65.54
2022-08-08T07:28:19.865Z,65.27
2022-08-08T07:30:49.540Z,65.22
2022-08-08T07:33:22.673Z,65.51
2022-08-08T07:35:51.304Z,65.66
2022-08-08T07:38:24.750Z,65.39
2022-08-08T07:40:59.151Z,65.32
2022-08-08T07:43:38.016Z,65.43
2022-08-08T07:46:23.310Z,65.23
2022-08-08T07:48:54.155Z,65.70
2022-08-08T07:51:44.931Z,65.82
2022-08-08T07:54:26.818Z,65.61
2022-08-08T07:57:08.867Z,65.92
2022-08-08T07:59:51.847Z,65.31
2022-08-08T08:02:34.951Z,65.61
2022-08-08T08:05:14.867Z,65.62
2022-08-08T08:07:53.052Z,64.84
2022-08-08T08:10:30.566Z,65.49
2022-08-08T08:13:25.235Z,64.53
2022-08-08T08:16:01.963Z,64.50
2022-08-08T08:19:02.248Z,64.70
2022-08-08T08:21:57.845Z,64.52
2022-08-08T08:24:42.993Z,64.45
2022-08-08T08:27:14.177Z,64.64
2022-08-08T08:29:44.039Z,64.48
2022-08-08T08:32:31.795Z,64.67
2022-08-08T08:35:07.713Z,64.54
2022-08-08T08:37:59.222Z,64.85
2022-08-08T08:40:25.302Z,64.54
2022-08-08T08:42:57.995Z,63.80
2022-08-08T08:45:28.874Z,64.03
2022-08-08T08:48:01.382Z,63.37
2022-08-08T08:50:36.732Z,63.28
2022-08-08T08:53:55.278Z,62.65
2022-08-08T08:56:08.384Z,63.25
2022-08-08T08:58:46.834Z,63.28
2022-08-08T09:01:45.502Z,62.56
2022-08-08T09:04:31.608Z,63.03
2022-08-08T09:07:12.808Z,62.49
2022-08-08T09:09:55.380Z,62.64
2022-08-08T09:12:31.694Z,62.10
2022-08-08T09:15:01.192Z,61.44
2022-08-08T09:17:42.021Z,61.38
2022-08-08T09:21:58.127Z,60.60
2022-08-08T09:23:10.469Z,61.83
2022-08-08T09:25:54.758Z,61.25
2022-08-08T09:28:37.569Z,61.23
2022-08-08T09:31:14.962Z,60.88
2022-08-08T09:34:14.535Z,60.18
2022-08-08T09:36:39.182Z,59.88
2022-08-08T09:39:15.683Z,60.55
2022-08-08T09:42:19.967Z,59.97
2022-08-08T09:45:15.371Z,59.91
2022-08-08T09:48:09.741Z,60.62
2022-08-08T09:50:44.059Z,60.98
2022-08-08T09:53:23.555Z,61.33
2022-08-08T09:56:05.839Z,61.75
2022-08-08T09:58:45.463Z,60.88
2022-08-08T10:01:14.200Z,61.80
2022-08-08T10:04:04.859Z,61.66
2022-08-08T10:06:42.111Z,61.55
2022-08-08T10:09:12.353Z,61.73
2022-08-08T10:12:28.273Z,61.84
2022-08-08T10:14:39.505Z,61.59
2022-08-08T10:17:57.349Z,61.72
2022-08-08T10:20:04.319Z,62.50
2022-08-08T10:22:33.951Z,62.02
2022-08-08T10:25:16.581Z,62.18
2022-08-08T10:27:44.335Z,61.93
2022-08-08T10:30:15.903Z,62.29
2022-08-08T10:32:51.385Z,62.83
2022-08-08T10:36:07.208Z,62.77
2022-08-08T10:38:15.206Z,62.79
2022-08-08T10:40:45.996Z,62.67
2022-08-08T10:43:14.398Z,62.51
2022-08-08T10:45:56.108Z,62.77
2022-08-08T10:48:33.509Z,62.70
2022-08-08T10:51:14.189Z,62.60
2022-08-08T10:53:57.119Z,63.22
2022-08-08T10:56:27.526Z,63.32
2022-08-08T10:59:05.279Z,63.01
2022-08-08T11:01:33.687Z,63.45
2022-08-08T11:04:04.439Z,63.79
2022-08-08T11:06:34.955Z,63.01
2022-08-08T11:09:15.499Z,62.89
2022-08-08T11:12:05.564Z,63.14
2022-08-08T11:14:34.911Z,63.02
2022-08-08T11:17:03.156Z,62.30
2022-08-08T11:19:35.993Z,62.88
2022-08-08T11:22:03.958Z,62.51
2022-08-08T11:24:35.604Z,62.37
2022-08-08T11:27:10.310Z,61.91
2022-08-08T11:29:50.971Z,63.05
2022-08-08T11:32:29.455Z,62.33
2022-08-08T11:35:27.071Z,62.72
2022-08-08T11:38:36.387Z,62.54
2022-08-08T11:40:52.563Z,62.53
2022-08-08T11:43:23.748Z,62.43
2022-08-08T11:46:09.816Z,61.51
2022-08-08T11:48:41.612Z,61.58
2022-08-08T11:51:29.947Z,61.33
2022-08-08T11:54:01.279Z,62.09
2022-08-08T11:56:34.952Z,62.43
2022-08-08T11:59:12.287Z,61.75
2022-08-08T12:01:39.530Z,61.41
2022-08-08T12:04:08.647Z,61.47
2022-08-08T12:06:35.694Z,60.96
2022-08-08T12:09:08.600Z,61.18
2022-08-08T12:11:41.879Z,61.72
2022-08-08T12:14:11.789Z,62.09
2022-08-08T12:16:49.009Z,61.12
2022-08-08T12:19:16.350Z,60.63
2022-08-08T12:22:09.005Z,60.90
2022-08-08T12:24:54.301Z,61.36
2022-08-08T12:27:26.700Z,61.35
2022-08-08T12:29:56.727Z,61.30
2022-08-08T12:32:23.879Z,60.71
2022-08-08T12:35:04.432Z,61.63
2022-08-08T12:37:41.284Z,61.61
2022-08-08T12:40:23.896Z,61.20
2022-08-08T12:42:52.627Z,60.96
2022-08-08T12:45:59.155Z,61.17
2022-08-08T12:48:36.923Z,60.96
2022-08-08T12:51:10.786Z,61.59
2022-08-08T12:53:57.483Z,61.54
2022-08-08T12:56:37.658Z,62.16
2022-08-08T12:59:20.571Z,62.07
2022-08-08T13:02:06.853Z,61.60
2022-08-08T13:04:34.587Z,61.48
2022-08-08T13:07:11.960Z,62.31
2022-08-08T13:10:04.506Z,62.18
2022-08-08T13:12:36.186Z,62.14
2022-08-08T13:15:16.761Z,61.82
2022-08-08T13:18:07.874Z,61.59
2022-08-08T13:20:31.818Z,61.43
2022-08-08T13:23:30.214Z,61.92
2022-08-08T13:25:50.448Z,61.14
2022-08-08T13:28:31.836Z,61.29
2022-08-08T13:31:01.860Z,60.38
2022-08-08T13:33:42.690Z,60.21
2022-08-08T13:36:11.351Z,60.37
2022-08-08T13:38:39.865Z,60.63
2022-08-08T13:41:16.538Z,60.42
2022-08-08T13:43:49.719Z,60.13
2022-08-08T13:46:27.408Z,59.89
2022-08-08T13:50:33.791Z,60.89
2022-08-08T13:51:57.998Z,61.43
2022-08-08T13:54:29.582Z,61.10
2022-08-08T13:57:11.364Z,60.03
2022-08-08T13:59:44.456Z,60.57
2022-08-08T14:02:21.556Z,60.21
2022-08-08T14:04:57.057Z,60.75
2022-08-08T14:07:29.723Z,61.32
2022-08-08T14:10:11.991Z,60.64
2022-08-08T14:12:43.796Z,60.47
2022-08-08T14:15:31.546Z,60.18
2022-08-08T14:18:34.522Z,59.50
2022-08-08T14:21:07.822Z,59.86
2022-08-08T14:24:04.729Z,59.47
2022-08-08T14:26:33.316Z,60.18
2022-08-08T14:29:01.507Z,59.80
2022-08-08T14:32:06.135Z,60.52
2022-08-08T14:34:23.164Z,59.49
2022-08-08T14:36:53.384Z,59.69
2022-08-08T14:39:24.624Z,59.55
2022-08-08T14:42:07.754Z,60.02
2022-08-08T14:44:35.519Z,59.76
2022-08-08T14:47:16.965Z,60.49
2022-08-08T14:50:06.777Z,60.46
2022-08-08T14:52:58.925Z,59.89
2022-08-08T14:55:35.345Z,60.97
2022-08-08T14:58:11.952Z,60.45
2022-08-08T15:00:45.271Z,61.21
2022-08-08T15:03:14.625Z,61.10
2022-08-08T15:05:43.329Z,61.10
2022-08-08T15:08:34.703Z,61.16
2022-08-08T15:11:10.445Z,61.16
2022-08-08T15:14:03.008Z,61.78
2022-08-08T15:16:28.723Z,61.58
2022-08-08T15:18:55.891Z,61.71
2022-08-08T15:21:23.038Z,61.76
2022-08-08T15:23:57.147Z,61.58
2022-08-08T15:26:25.776Z,61.11
2022-08-08T15:28:54.070Z,61.02
2022-08-08T15:31:49.027Z,60.80
2022-08-08T15:34:29.051Z,60.61
2022-08-08T15:37:03.054Z,60.36
2022-08-08T15:39:37.988Z,60.73
2022-08-08T15:42:12.991Z,61.32
2022-08-08T15:44:42.235Z,61.29
2022-08-08T15:47:15.674Z,61.65
2022-08-08T15:49:48.523Z,61.70
2022-08-08T15:52:17.627Z,61.57
2022-08-08T15:54:47.797Z,62.36
2022-08-08T15:57:19.137Z,62.24
2022-08-08T16:00:05.944Z,62.27
2022-08-08T16:02:44.109Z,62.59
2022-08-08T16:05:14.169Z,63.17
2022-08-08T16:07:51.959Z,61.64
2022-08-08T16:13:05.741Z,61.55
2022-08-08T16:13:45.206Z,62.35
2022-08-08T16:16:12.737Z,61.55
2022-08-08T16:18:43.619Z,61.76
2022-08-08T16:21:27.085Z,61.83
2022-08-08T16:23:56.396Z,62.03
2022-08-08T16:26:32.790Z,61.76
2022-08-08T16:29:01.695Z,62.19
2022-08-08T16:31:30.552Z,62.67
2022-08-08T16:33:59.611Z,62.48
2022-08-08T16:36:33.434Z,62.46
2022-08-08T16:39:10.013Z,62.21
2022-08-08T16:41:50.561Z,62.08
2022-08-08T16:44:27.734Z,62.43
2022-08-08T16:47:16.339Z,62.66
2022-08-08T16:49:43.455Z,62.69
2022-08-08T16:55:05.346Z,62.97
2022-08-08T16:55:33.876Z,62.83
2022-08-08T16:58:14.528Z,63.43
2022-08-08T17:00:35.246Z,62.39
2022-08-08T17:03:03.875Z,63.19
2022-08-08T17:05:44.481Z,63.02
2022-08-08T17:08:13.922Z,63.47
2022-08-08T17:10:53.618Z,63.39
2022-08-08T17:13:27.500Z,63.48
2022-08-08T17:16:07.780Z,63.67
2022-08-08T17:18:42.672Z,63.75
2022-08-08T17:21:12.661Z,64.01
2022-08-08T17:23:58.316Z,64.16
2022-08-08T17:26:29.347Z,63.69
2022-08-08T17:28:58.673Z,63.80
2022-08-08T17:31:45.721Z,64.10
2022-08-08T17:34:37.190Z,64.27
2022-08-08T17:37:06.637Z,64.06
2022-08-08T17:40:03.166Z,64.29
2022-08-08T17:42:25.362Z,63.76
2022-08-08T17:44:53.198Z,64.43
2022-08-08T17:47:23.783Z,64.67
2022-08-08T17:49:53.082Z,64.91
2022-08-08T17:52:34.254Z,64.77
2022-08-08T17:55:05.587Z,64.72
2022-08-08T17:57:38.575Z,64.79
2022-08-08T18:00:13.235Z,64.91
2022-08-08T18:02:52.174Z,65.46
2022-08-08T18:05:44.140Z,65.02
2022-08-08T18:08:25.113Z,65.13
2022-08-08T18:11:04.963Z,64.96
2022-08-08T18:13:35.047Z,65.17
2022-08-08T18:16:10.198Z,65.25
2022-08-08T18:18:42.387Z,64.92
2022-08-08T18:21:10.794Z,65.65
2022-08-08T18:23:52.860Z,65.15
2022-08-08T18:26:23.389Z,65.64
2022-08-08T18:28:55.548Z,65.31
2022-08-08T18:31:22.675Z,66.02
2022-08-08T18:34:11.291Z,65.57
2022-08-08T18:36:38.028Z,65.50
2022-08-08T18:39:06.371Z,65.51
2022-08-08T18:41:51.528Z,65.74
2022-08-08T18:44:20.486Z,66.23
2022-08-08T18:46:55.691Z,65.93
2022-08-08T18:49:32.291Z,65.50
2022-08-08T18:52:18.486Z,65.82
2022-08-08T18:54:58.986Z,65.73
2022-08-08T18:57:27.537Z,65.84
2022-08-08T19:00:01.262Z,65.92
2022-08-08T19:02:31.076Z,66.24
2022-08-08T19:04:58.120Z,65.66
2022-08-08T19:07:29.750Z,65.90
2022-08-08T19:10:13.684Z,66.77
2022-08-08T19:12:44.749Z,66.38
2022-08-08T19:15:23.622Z,66.55
2022-08-08T19:18:33.276Z,66.55
2022-08-08T19:20:39.602Z,66.55
2022-08-08T19:23:10.791Z,66.46
2022-08-08T19:26:26.957Z,66.73
2022-08-08T19:28:25.438Z,66.50
2022-08-08T19:31:04.079Z,66.65
2022-08-08T19:33:51.897Z,66.94
2022-08-08T19:36:25.059Z,67.04
2022-08-08T19:38:55.873Z,67.26
2022-08-08T19:41:30.930Z,66.77
2022-08-08T19:44:03.025Z,67.33
2022-08-08T19:46:33.709Z,67.32
2022-08-08T19:49:04.218Z,67.35
2022-08-08T19:51:34.107Z,67.66
2022-08-08T19:54:02.192Z,67.97
2022-08-08T19:56:39.846Z,67.63
2022-08-08T19:59:12.849Z,67.64
2022-08-08T20:02:02.306Z,67.82
2022-08-08T20:04:28.155Z,67.87
2022-08-08T20:06:57.111Z,68.15
2022-08-08T20:09:25.306Z,68.21
2022-08-08T20:11:57.239Z,68.22
2022-08-08T20:14:34.871Z,68.99
2022-08-08T20:17:04.395Z,68.77
2022-08-08T20:19:34.221Z,68.67
2022-08-08T20:22:13.403Z,68.61
2022-08-08T20:24:48.641Z,68.45
2022-08-08T20:27:20.253Z,68.69
2022-08-08T20:30:00.477Z,68.63
2022-08-08T20:32:31.956Z,68.57
2022-08-08T20:35:01.129Z,68.74
2022-08-08T20:37:46.856Z,68.62
2022-08-08T20:40:33.470Z,68.40
2022-08-08T20:43:16.228Z,68.42
2022-08-08T20:45:57.270Z,68.74
2022-08-08T20:48:29.227Z,68.47
2022-08-08T20:50:56.299Z,68.30
2022-08-08T20:53:58.125Z,68.71
2022-08-08T20:56:10.458Z,68.48
2022-08-08T20:58:47.981Z,69.08
2022-08-08T21:01:20.085Z,68.98
2022-08-08T21:03:59.758Z,69.31
2022-08-08T21:06:52.183Z,68.92
2022-08-08T21:09:16.209Z,68.91
2022-08-08T21:11:51.856Z,68.90
2022-08-08T21:14:30.405Z,69.19
2022-08-08T21:17:06.394Z,68.96
2022-08-08T21:19:45.925Z,69.05
2022-08-08T21:22:15.649Z,68.97
2022-08-08T21:24:52.941Z,68.78
2022-08-08T21:28:06.516Z,68.82
2022-08-08T21:30:19.300Z,68.46
2022-08-08T21:32:51.178Z,68.73
2022-08-08T21:36:18.258Z,68.21
2022-08-08T21:38:11.821Z,68.54
2022-08-08T21:40:55.583Z,68.47
2022-08-08T21:43:34.275Z,68.63
2022-08-08T21:48:20.427Z,68.43
2022-08-08T21:48:55.409Z,67.96
2022-08-08T21:54:16.871Z,68.07
2022-08-08T21:54:35.172Z,67.76
2022-08-08T21:57:03.277Z,67.75
2022-08-08T22:00:01.511Z,67.58
2022-08-08T22:02:22.807Z,67.24
2022-08-08T22:04:52.982Z,67.31
2022-08-08T22:07:20.223Z,66.97
2022-08-08T22:09:53.334Z,67.34
2022-08-08T22:12:20.295Z,67.23
2022-08-08T22:14:49.959Z,66.92
2022-08-08T22:17:19.138Z,67.07
2022-08-08T22:20:11.407Z,67.13
2022-08-08T22:22:36.097Z,67.38
2022-08-08T22:25:12.510Z,67.98
2022-08-08T22:28:03.704Z,68.41
2022-08-08T22:30:41.529Z,69.12
2022-08-08T22:34:10.831Z,69.76
2022-08-08T22:36:04.784Z,70.61
2022-08-08T22:38:48.961Z,70.83
2022-08-08T22:41:21.787Z,70.55
2022-08-08T22:44:01.193Z,71.18
2022-08-08T22:46:33.124Z,71.71
2022-08-08T22:49:00.547Z,72.96
2022-08-08T22:51:29.283Z,72.53
2022-08-08T22:54:33.780Z,72.37
2022-08-08T22:56:50.188Z,73.29
2022-08-08T22:59:18.602Z,73.04
2022-08-08T23:02:02.371Z,72.87
2022-08-08T23:04:32.629Z,72.94
2022-08-08T23:07:02.799Z,73.61
2022-08-08T23:09:31.264Z,73.14
2022-08-08T23:12:29.153Z,72.51
2022-08-08T23:14:56.380Z,72.73
2022-08-08T23:17:30.127Z,73.34
2022-08-08T23:19:57.260Z,73.44
2022-08-08T23:22:24.254Z,72.95
2022-08-08T23:24:51.754Z,73.69
2022-08-08T23:27:46.484Z,73.32
2022-08-08T23:30:09.259Z,72.95
2022-08-08T23:32:44.025Z,73.14
2022-08-08T23:35:12.609Z,73.16
2022-08-08T23:38:01.109Z,72.97
2022-08-08T23:40:30.941Z,73.11
2022-08-08T23:42:58.200Z,73.39
2022-08-08T23:49:04.183Z,72.91
2022-08-08T23:49:04.330Z,72.66
2022-08-08T23:51:03.947Z,72.77
2022-08-08T23:54:05.781Z,72.58
2022-08-08T23:56:23.855Z,72.82
2022-08-08T23:58:59.511Z,73.05
